createdAt,value
2023-12-30T00:09:31.744Z,10.00
2023-12-30T00:19:31.814Z,9.90
2023-12-30T00:29:31.760Z,9.86
2023-12-30T00:39:31.990Z,9.84
2023-12-30T00:49:32.804Z,9.85
2023-12-30T00:59:32.833Z,9.87
2023-12-30T01:09:32.822Z,9.92
2023-12-30T01:19:33.467Z,10.02
2023-12-30T01:29:32.822Z,10.11
2023-12-30T01:39:32.872Z,10.13
2023-12-30T01:49:32.952Z,10.12
2023-12-30T01:59:32.898Z,10.11
2023-12-30T02:09:32.915Z,10.11
2023-12-30T02:19:32.914Z,10.13
2023-12-30T02:29:32.910Z,10.14
2023-12-30T02:39:32.935Z,10.08
2023-12-30T02:49:32.958Z,9.93
2023-12-30T02:59:32.953Z,9.81
2023-12-30T03:09:32.966Z,9.73
2023-12-30T03:19:33.058Z,9.71
2023-12-30T03:29:32.958Z,9.79
2023-12-30T03:39:32.983Z,9.92
2023-12-30T03:49:33.146Z,10.02
2023-12-30T03:59:33.043Z,10.08
2023-12-30T04:09:33.034Z,10.07
2023-12-30T04:19:33.071Z,10.04
2023-12-30T04:29:33.271Z,9.96
2023-12-30T04:39:33.282Z,9.82
2023-12-30T04:49:33.296Z,9.67
2023-12-30T04:59:33.106Z,9.63
2023-12-30T05:09:33.098Z,9.71
2023-12-30T05:19:33.136Z,9.80
2023-12-30T05:29:33.231Z,9.85
2023-12-30T05:39:33.156Z,9.89
2023-12-30T05:49:33.161Z,9.95
2023-12-30T05:59:33.149Z,10.02
2023-12-30T06:09:33.164Z,10.04
2023-12-30T06:19:33.227Z,10.06
2023-12-30T06:29:33.662Z,10.08
2023-12-30T06:39:33.208Z,10.07
2023-12-30T06:49:33.464Z,10.01
2023-12-30T06:59:33.264Z,9.88
2023-12-30T07:09:33.310Z,9.67
2023-12-30T07:19:33.448Z,9.47
2023-12-30T07:29:33.294Z,9.34
2023-12-30T07:39:33.253Z,9.29
2023-12-30T07:49:33.337Z,9.34
2023-12-30T07:59:33.287Z,9.45
2023-12-30T08:09:33.333Z,9.60
2023-12-30T08:19:33.398Z,9.72
2023-12-30T08:29:33.359Z,9.79
2023-12-30T08:39:33.389Z,9.83
2023-12-30T08:49:33.430Z,9.99
2023-12-30T08:59:33.396Z,10.22
2023-12-30T09:09:33.435Z,10.38
2023-12-30T09:19:33.522Z,10.48
2023-12-30T09:29:33.434Z,10.56
2023-12-30T09:39:33.469Z,10.65
2023-12-30T09:49:33.483Z,10.75
2023-12-30T09:59:33.518Z,10.89
2023-12-30T10:09:33.502Z,11.05
2023-12-30T10:19:33.624Z,11.23
2023-12-30T10:29:43.152Z,11.44
2023-12-30T10:39:34.522Z,11.64
2023-12-30T10:49:34.621Z,11.85
2023-12-30T10:59:34.581Z,12.05
2023-12-30T11:09:34.593Z,12.19
2023-12-30T11:19:34.719Z,12.28
2023-12-30T11:29:34.606Z,12.32
2023-12-30T11:39:34.592Z,12.37
2023-12-30T11:49:34.624Z,12.48
2023-12-30T11:59:34.643Z,12.65
2023-12-30T12:09:34.662Z,12.77
2023-12-30T12:19:34.743Z,12.86
2023-12-30T12:29:34.702Z,12.93
2023-12-30T12:39:34.673Z,12.92
2023-12-30T12:49:34.769Z,12.87
2023-12-30T12:59:34.725Z,12.82
2023-12-30T13:09:34.704Z,12.81
2023-12-30T13:19:34.819Z,12.79
2023-12-30T13:29:34.773Z,12.69
2023-12-30T13:39:34.755Z,12.52
2023-12-30T13:49:34.948Z,12.37
2023-12-30T13:59:34.821Z,12.29
2023-12-30T14:09:34.882Z,12.27
2023-12-30T14:19:34.945Z,12.28
2023-12-30T14:29:34.822Z,12.23
2023-12-30T14:39:34.835Z,12.08
2023-12-30T14:49:34.959Z,11.91
2023-12-30T14:59:34.838Z,11.77
2023-12-30T15:09:34.871Z,11.69
2023-12-30T15:19:34.939Z,11.65
2023-12-30T15:29:34.923Z,11.68
2023-12-30T15:39:34.891Z,11.72
2023-12-30T15:49:35.094Z,11.76
2023-12-30T15:59:34.997Z,11.80
2023-12-30T16:09:38.123Z,11.83
2023-12-30T16:19:38.108Z,11.83
2023-12-30T16:29:37.988Z,11.77
2023-12-30T16:39:37.985Z,11.66
2023-12-30T16:49:38.029Z,11.53
2023-12-30T16:59:38.000Z,11.35
2023-12-30T17:09:38.052Z,11.10
2023-12-30T17:19:38.080Z,10.85
2023-12-30T17:29:38.074Z,10.66
2023-12-30T17:39:38.075Z,10.58
2023-12-30T17:49:38.110Z,10.61
2023-12-30T17:59:38.076Z,10.67
2023-12-30T18:09:38.165Z,10.66
2023-12-30T18:19:38.169Z,10.65
2023-12-30T18:29:38.125Z,10.67
2023-12-30T18:39:38.146Z,10.68
2023-12-30T18:49:38.171Z,10.64
2023-12-30T18:59:38.200Z,10.61
2023-12-30T19:09:38.183Z,10.58
2023-12-30T19:19:38.270Z,10.51
2023-12-30T19:29:38.188Z,10.37
2023-12-30T19:39:38.230Z,10.19
2023-12-30T19:49:38.261Z,10.01
2023-12-30T19:59:38.245Z,9.88
2023-12-30T20:09:38.268Z,9.86
2023-12-30T20:19:38.288Z,9.94
2023-12-30T20:29:38.307Z,10.05
2023-12-30T20:39:38.310Z,10.16
2023-12-30T20:49:38.372Z,10.25
2023-12-30T20:59:38.304Z,10.35
2023-12-30T21:09:38.312Z,10.47
2023-12-30T21:19:38.419Z,10.60
2023-12-30T21:29:38.355Z,10.70
2023-12-30T21:39:38.372Z,10.78
2023-12-30T21:49:45.612Z,10.85
2023-12-30T22:00:05.834Z,10.90
2023-12-30T22:10:05.436Z,10.90
2023-12-30T22:20:05.529Z,10.86
2023-12-30T22:30:05.457Z,10.82
2023-12-30T22:40:05.524Z,10.84
2023-12-30T22:50:05.616Z,10.88
2023-12-30T23:00:05.471Z,10.92
2023-12-30T23:10:05.497Z,10.95
2023-12-30T23:20:05.538Z,10.94
2023-12-30T23:30:05.554Z,10.88
2023-12-30T23:40:05.699Z,10.80
2023-12-30T23:50:05.521Z,10.77
